createdAt,value
2022-10-31T00:00:54.636Z,11.50
2022-10-31T00:03:23.061Z,11.40
2022-10-31T00:05:52.348Z,11.40
2022-10-31T00:08:21.396Z,11.50
2022-10-31T00:10:49.607Z,11.50
2022-10-31T00:13:18.029Z,11.40
2022-10-31T00:15:47.787Z,11.50
2022-10-31T00:18:16.079Z,11.50
2022-10-31T00:20:44.414Z,11.40
2022-10-31T00:23:13.681Z,11.40
2022-10-31T00:25:42.601Z,11.30
2022-10-31T00:28:13.874Z,11.30
2022-10-31T00:30:42.259Z,11.30
2022-10-31T00:33:12.012Z,11.30
2022-10-31T00:35:40.257Z,11.20
2022-10-31T00:38:08.519Z,11.20
2022-10-31T00:40:36.718Z,11.20
2022-10-31T00:43:05.248Z,11.30
2022-10-31T00:45:33.690Z,11.30
2022-10-31T00:48:02.260Z,11.40
2022-10-31T00:50:32.254Z,11.40
2022-10-31T00:53:00.436Z,11.40
2022-10-31T00:55:28.615Z,11.40
2022-10-31T00:57:57.070Z,11.50
2022-10-31T01:00:25.808Z,11.50
2022-10-31T01:02:53.946Z,11.50
2022-10-31T01:05:22.178Z,11.50
2022-10-31T01:07:51.982Z,11.40
2022-10-31T01:10:20.315Z,11.40
2022-10-31T01:12:50.039Z,11.50
2022-10-31T01:15:20.502Z,11.40
2022-10-31T01:17:48.733Z,11.50
2022-10-31T01:20:17.686Z,11.50
2022-10-31T01:22:45.851Z,11.50
2022-10-31T01:25:15.665Z,11.50
2022-10-31T01:27:43.816Z,11.50
2022-10-31T01:30:13.102Z,11.50
2022-10-31T01:32:41.315Z,11.50
2022-10-31T01:35:09.561Z,11.50
2022-10-31T01:37:37.757Z,11.60
2022-10-31T01:40:06.991Z,11.60
2022-10-31T01:42:36.684Z,11.60
2022-10-31T01:45:06.508Z,11.60
2022-10-31T01:47:43.334Z,11.60
2022-10-31T01:50:26.256Z,11.70
2022-10-31T01:52:55.271Z,11.60
2022-10-31T01:55:30.418Z,11.60
2022-10-31T01:58:04.800Z,11.60
2022-10-31T02:00:33.335Z,11.60
2022-10-31T02:03:02.304Z,11.60
2022-10-31T02:05:32.531Z,11.60
2022-10-31T02:08:04.784Z,11.70
2022-10-31T02:10:34.945Z,11.70
2022-10-31T02:13:07.450Z,11.70
2022-10-31T02:15:37.138Z,11.70
2022-10-31T02:18:06.035Z,11.60
2022-10-31T02:20:41.491Z,11.60
2022-10-31T02:23:57.672Z,11.60
2022-10-31T02:26:45.759Z,11.60
2022-10-31T02:29:40.010Z,11.60
2022-10-31T02:32:17.048Z,11.60
2022-10-31T02:34:53.456Z,11.50
2022-10-31T02:37:28.173Z,11.50
2022-10-31T02:40:01.515Z,11.50
2022-10-31T02:42:35.703Z,11.50
2022-10-31T02:45:10.938Z,11.60
2022-10-31T02:47:41.339Z,11.60
2022-10-31T02:50:15.140Z,11.60
2022-10-31T02:52:43.428Z,11.60
2022-10-31T02:55:13.859Z,11.60
2022-10-31T02:57:44.029Z,11.60
2022-10-31T03:00:13.294Z,11.60
2022-10-31T03:03:02.944Z,11.60
2022-10-31T03:05:47.387Z,11.60
2022-10-31T03:08:24.554Z,11.50
2022-10-31T03:10:58.542Z,11.50
2022-10-31T03:13:35.404Z,11.50
2022-10-31T03:16:12.197Z,11.40
2022-10-31T03:18:43.223Z,11.40
2022-10-31T03:21:16.576Z,11.40
2022-10-31T03:23:48.095Z,11.40
2022-10-31T03:26:17.956Z,11.30
2022-10-31T03:28:51.891Z,11.30
2022-10-31T03:31:24.891Z,11.30
2022-10-31T03:33:55.544Z,11.30
2022-10-31T03:36:25.003Z,11.30
2022-10-31T03:38:54.546Z,11.30
2022-10-31T03:41:27.287Z,11.30
2022-10-31T03:44:00.302Z,11.30
2022-10-31T03:46:28.803Z,11.20
2022-10-31T03:48:59.425Z,11.20
2022-10-31T03:51:34.789Z,11.20
2022-10-31T03:54:11.129Z,11.20
2022-10-31T03:56:43.599Z,11.20
2022-10-31T03:59:18.323Z,11.10
2022-10-31T04:01:49.862Z,11.10
2022-10-31T04:04:21.282Z,11.10
2022-10-31T04:06:51.362Z,11.00
2022-10-31T04:09:21.799Z,10.90
2022-10-31T04:11:55.408Z,10.90
2022-10-31T04:14:26.396Z,10.80
2022-10-31T04:16:54.791Z,10.90
2022-10-31T04:19:24.517Z,10.90
2022-10-31T04:21:52.720Z,10.90
2022-10-31T04:24:21.046Z,10.90
2022-10-31T04:26:49.190Z,10.90
2022-10-31T04:29:17.334Z,10.90
2022-10-31T04:31:45.635Z,10.90
2022-10-31T04:34:13.847Z,10.90
2022-10-31T04:36:43.519Z,11.00
2022-10-31T04:39:11.654Z,11.00
2022-10-31T04:41:39.854Z,11.00
2022-10-31T04:44:08.175Z,11.00
2022-10-31T04:46:36.495Z,11.00
2022-10-31T04:49:04.814Z,11.00
2022-10-31T04:51:33.003Z,11.00
2022-10-31T04:54:02.714Z,11.00
2022-10-31T04:56:30.997Z,10.90
2022-10-31T04:58:59.144Z,11.00
2022-10-31T05:01:27.541Z,11.00
2022-10-31T05:03:55.904Z,11.00
2022-10-31T05:06:24.193Z,11.00
2022-10-31T05:08:52.359Z,11.00
2022-10-31T05:11:22.175Z,11.00
2022-10-31T05:13:50.463Z,11.10
2022-10-31T05:16:18.734Z,11.00
2022-10-31T05:18:46.893Z,11.10
2022-10-31T05:21:15.041Z,11.00
2022-10-31T05:23:47.453Z,11.00
2022-10-31T05:26:16.918Z,11.10
2022-10-31T05:28:46.580Z,11.10
2022-10-31T05:31:14.828Z,11.00
2022-10-31T05:33:43.223Z,11.10
2022-10-31T05:36:11.483Z,11.10
2022-10-31T05:38:39.747Z,11.10
2022-10-31T05:41:07.992Z,11.10
2022-10-31T05:43:36.211Z,11.10
2022-10-31T05:46:06.171Z,11.10
2022-10-31T05:48:34.545Z,11.10
2022-10-31T05:51:02.746Z,11.10
2022-10-31T05:53:31.003Z,11.10
2022-10-31T05:55:59.161Z,11.00
2022-10-31T05:58:27.430Z,11.00
2022-10-31T06:00:55.824Z,10.90
2022-10-31T06:03:26.069Z,10.90
2022-10-31T06:05:55.377Z,10.90
2022-10-31T06:08:23.904Z,10.90
2022-10-31T06:10:54.158Z,10.90
2022-10-31T06:13:22.491Z,10.90
2022-10-31T06:15:50.793Z,10.90
2022-10-31T06:18:19.131Z,11.00
2022-10-31T06:20:48.978Z,11.00
2022-10-31T06:23:17.210Z,11.00
2022-10-31T06:25:45.463Z,11.10
2022-10-31T06:28:13.871Z,11.00
2022-10-31T06:30:42.120Z,11.10
2022-10-31T06:33:10.501Z,11.10
2022-10-31T06:35:38.759Z,11.20
2022-10-31T06:38:08.558Z,11.20
2022-10-31T06:40:36.768Z,11.10
2022-10-31T06:43:05.106Z,11.10
2022-10-31T06:45:33.426Z,11.20
2022-10-31T06:48:16.748Z,11.20
2022-10-31T06:50:45.784Z,11.20
2022-10-31T06:53:16.080Z,11.20
2022-10-31T06:55:44.909Z,11.30
2022-10-31T06:58:13.622Z,11.30
2022-10-31T07:00:41.852Z,11.30
2022-10-31T07:03:13.971Z,11.30
2022-10-31T07:05:42.792Z,11.30
2022-10-31T07:08:12.926Z,11.30
2022-10-31T07:10:44.595Z,11.40
2022-10-31T07:13:14.593Z,11.30
2022-10-31T07:15:44.161Z,11.30
2022-10-31T07:18:13.885Z,11.30
2022-10-31T07:20:42.305Z,11.40
2022-10-31T07:23:12.221Z,11.40
2022-10-31T07:25:40.934Z,11.40
2022-10-31T07:28:11.460Z,11.40
2022-10-31T07:30:40.447Z,11.40
2022-10-31T07:33:09.108Z,11.40
2022-10-31T07:35:37.498Z,11.40
2022-10-31T07:38:12.956Z,11.40
2022-10-31T07:40:41.669Z,11.50
2022-10-31T07:43:14.476Z,11.50
2022-10-31T07:45:43.105Z,11.50
2022-10-31T07:48:11.519Z,11.50
2022-10-31T07:50:40.493Z,11.60
2022-10-31T07:53:10.667Z,11.60
2022-10-31T07:55:39.258Z,11.70
2022-10-31T07:58:08.999Z,11.70
2022-10-31T08:00:40.104Z,11.70
2022-10-31T08:03:10.477Z,11.70
2022-10-31T08:05:39.221Z,11.80
2022-10-31T08:08:07.874Z,11.80
2022-10-31T08:10:36.813Z,11.90
2022-10-31T08:13:07.747Z,11.90
2022-10-31T08:15:39.088Z,11.90
2022-10-31T08:18:12.848Z,12.00
2022-10-31T08:20:41.407Z,12.00
2022-10-31T08:23:11.567Z,11.90
2022-10-31T08:25:40.112Z,11.90
2022-10-31T08:28:09.211Z,12.00
2022-10-31T08:30:39.954Z,12.00
2022-10-31T08:33:12.404Z,12.00
2022-10-31T08:35:41.216Z,12.10
2022-10-31T08:38:10.952Z,12.10
2022-10-31T08:40:39.892Z,12.20
2022-10-31T08:43:09.429Z,12.20
2022-10-31T08:45:37.725Z,12.20
2022-10-31T08:48:08.428Z,12.20
2022-10-31T08:50:38.946Z,12.20
2022-10-31T08:53:09.734Z,12.30
2022-10-31T08:55:39.207Z,12.30
2022-10-31T08:58:09.352Z,12.30
2022-10-31T09:00:37.873Z,12.30
2022-10-31T09:03:08.384Z,12.30
2022-10-31T09:05:38.719Z,12.40
2022-10-31T09:08:13.146Z,12.40
2022-10-31T09:10:44.784Z,12.50
2022-10-31T09:13:14.850Z,12.50
2022-10-31T09:15:45.794Z,12.50
2022-10-31T09:18:15.146Z,12.50
2022-10-31T09:20:46.442Z,12.60
2022-10-31T09:23:16.990Z,12.60
2022-10-31T09:25:50.159Z,12.70
2022-10-31T09:28:20.985Z,12.60
2022-10-31T09:30:50.144Z,12.70
2022-10-31T09:33:18.973Z,12.70
2022-10-31T09:35:48.778Z,12.60
2022-10-31T09:38:20.237Z,12.70
2022-10-31T09:40:51.383Z,12.70
2022-10-31T09:43:27.908Z,12.80
2022-10-31T09:46:03.328Z,12.70
2022-10-31T09:48:55.689Z,12.80
2022-10-31T09:51:30.767Z,12.70
2022-10-31T09:54:05.452Z,12.80
2022-10-31T09:56:35.971Z,12.80
2022-10-31T09:59:06.596Z,12.80
2022-10-31T10:01:43.256Z,12.90
2022-10-31T10:04:30.816Z,12.90
2022-10-31T10:07:02.398Z,12.90
2022-10-31T10:09:31.398Z,12.90
2022-10-31T10:12:10.826Z,12.90
2022-10-31T10:14:50.548Z,12.80
2022-10-31T10:17:29.266Z,12.80
2022-10-31T10:20:22.838Z,12.90
2022-10-31T10:22:58.065Z,12.90
2022-10-31T10:25:30.953Z,12.90
2022-10-31T10:28:09.364Z,13.00
2022-10-31T10:30:42.391Z,13.00
2022-10-31T10:33:14.540Z,13.00
2022-10-31T10:35:48.499Z,13.10
2022-10-31T10:38:25.057Z,13.20
2022-10-31T10:40:55.107Z,13.30
2022-10-31T10:43:26.900Z,13.30
2022-10-31T10:46:36.647Z,13.30
2022-10-31T10:49:14.805Z,13.40
2022-10-31T10:51:57.767Z,13.40
2022-10-31T10:54:56.283Z,13.40
2022-10-31T10:57:34.110Z,13.40
2022-10-31T11:00:19.092Z,13.40
2022-10-31T11:02:49.014Z,13.40
2022-10-31T11:05:27.143Z,13.40
2022-10-31T11:07:55.361Z,13.40
2022-10-31T11:10:25.618Z,13.40
2022-10-31T11:13:04.583Z,13.40
2022-10-31T11:15:37.102Z,13.40
2022-10-31T11:18:05.475Z,13.40
2022-10-31T11:20:35.872Z,13.40
2022-10-31T11:23:18.721Z,13.40
2022-10-31T11:25:59.993Z,13.40
2022-10-31T11:28:30.458Z,13.40
2022-10-31T11:31:00.870Z,13.30
2022-10-31T11:33:34.129Z,13.30
2022-10-31T11:36:04.714Z,13.30
2022-10-31T11:38:41.890Z,13.30
2022-10-31T11:41:15.183Z,13.30
2022-10-31T11:43:52.027Z,13.20
2022-10-31T11:46:26.152Z,13.20
2022-10-31T11:48:57.692Z,13.20
2022-10-31T11:51:28.558Z,13.20
2022-10-31T11:54:02.727Z,13.10
2022-10-31T11:56:41.933Z,13.10
2022-10-31T11:59:25.111Z,13.10
2022-10-31T12:01:55.324Z,13.20
2022-10-31T12:04:37.662Z,13.10
2022-10-31T12:07:06.048Z,13.20
2022-10-31T12:09:37.219Z,13.20
2022-10-31T12:12:35.527Z,13.20
2022-10-31T12:15:16.325Z,13.20
2022-10-31T12:17:51.781Z,13.20
2022-10-31T12:20:28.368Z,13.20
2022-10-31T12:23:05.034Z,13.20
2022-10-31T12:25:41.283Z,13.20
2022-10-31T12:28:35.500Z,13.20
2022-10-31T12:31:23.991Z,13.20
2022-10-31T12:34:04.044Z,13.30
2022-10-31T12:36:48.707Z,13.30
2022-10-31T12:39:31.942Z,13.30
2022-10-31T12:42:08.746Z,13.30
2022-10-31T12:44:59.919Z,13.30
2022-10-31T12:47:48.499Z,13.30
2022-10-31T12:50:30.895Z,13.30
2022-10-31T12:53:09.787Z,13.30
2022-10-31T12:55:48.361Z,13.30
2022-10-31T12:58:24.122Z,13.30
2022-10-31T13:01:04.589Z,13.30
2022-10-31T13:03:40.669Z,13.20
2022-10-31T13:06:14.376Z,13.20
2022-10-31T13:08:47.076Z,13.10
2022-10-31T13:11:19.518Z,13.20
2022-10-31T13:13:54.690Z,13.20
2022-10-31T13:16:28.133Z,13.20
2022-10-31T13:19:00.589Z,13.10
2022-10-31T13:21:32.555Z,13.10
2022-10-31T13:24:05.853Z,13.10
2022-10-31T13:26:40.163Z,13.10
2022-10-31T13:29:20.666Z,13.10
2022-10-31T13:31:50.421Z,13.10
2022-10-31T13:34:27.783Z,13.00
2022-10-31T13:37:03.846Z,13.00
2022-10-31T13:39:43.283Z,13.00
2022-10-31T13:42:17.926Z,12.90
2022-10-31T13:44:46.224Z,12.90
2022-10-31T13:47:26.958Z,12.80
2022-10-31T13:50:07.933Z,12.80
2022-10-31T13:52:36.251Z,12.80
2022-10-31T13:55:04.526Z,12.80
2022-10-31T13:57:37.395Z,12.70
2022-10-31T14:00:09.071Z,12.70
2022-10-31T14:02:39.314Z,12.70
2022-10-31T14:05:21.169Z,12.60
2022-10-31T14:07:49.914Z,12.60
2022-10-31T14:10:27.244Z,12.60
2022-10-31T14:12:57.332Z,12.50
2022-10-31T14:15:27.798Z,12.50
2022-10-31T14:18:00.240Z,12.60
2022-10-31T14:20:38.167Z,12.60
2022-10-31T14:23:36.468Z,12.60
2022-10-31T14:26:32.155Z,12.60
2022-10-31T14:29:02.297Z,12.60
2022-10-31T14:31:35.911Z,12.60
2022-10-31T14:34:21.297Z,12.60
2022-10-31T14:37:01.528Z,12.50
2022-10-31T14:39:36.055Z,12.60
2022-10-31T14:42:21.322Z,12.60
2022-10-31T14:45:18.088Z,12.60
2022-10-31T14:47:57.729Z,12.60
2022-10-31T14:50:45.195Z,12.60
2022-10-31T14:53:20.750Z,12.60
2022-10-31T14:55:52.380Z,12.60
2022-10-31T14:58:23.705Z,12.50
2022-10-31T15:00:56.363Z,12.50
2022-10-31T15:03:28.660Z,12.50
2022-10-31T15:06:02.585Z,12.50
2022-10-31T15:08:42.581Z,12.50
2022-10-31T15:11:15.844Z,12.50
2022-10-31T15:13:46.020Z,12.50
2022-10-31T15:16:17.120Z,12.50
2022-10-31T15:18:52.139Z,12.50
2022-10-31T15:21:23.465Z,12.40
2022-10-31T15:23:54.331Z,12.50
2022-10-31T15:26:24.939Z,12.40
2022-10-31T15:29:03.485Z,12.40
2022-10-31T15:31:33.275Z,12.40
2022-10-31T15:34:06.549Z,12.40
2022-10-31T15:36:38.641Z,12.40
2022-10-31T15:39:07.203Z,12.40
2022-10-31T15:41:42.077Z,12.40
2022-10-31T15:44:16.741Z,12.20
2022-10-31T15:46:45.174Z,12.10
2022-10-31T15:49:27.491Z,12.10
2022-10-31T15:54:27.090Z,12.10
2022-10-31T15:56:55.331Z,12.10
2022-10-31T15:59:26.538Z,12.10
2022-10-31T16:02:03.009Z,12.10
2022-10-31T16:04:31.989Z,12.10
2022-10-31T16:07:18.786Z,12.00
2022-10-31T16:09:55.026Z,12.00
2022-10-31T16:12:24.352Z,12.10
2022-10-31T16:14:54.139Z,12.10
2022-10-31T16:17:25.331Z,12.10
2022-10-31T16:19:58.282Z,12.20
2022-10-31T16:22:30.425Z,12.10
2022-10-31T16:25:04.771Z,12.20
2022-10-31T16:27:35.343Z,12.10
2022-10-31T16:30:24.251Z,12.10
2022-10-31T16:32:57.647Z,12.10
2022-10-31T16:35:28.702Z,12.10
2022-10-31T16:37:58.523Z,12.10
2022-10-31T16:40:27.239Z,12.00
2022-10-31T16:42:55.724Z,12.00
2022-10-31T16:45:25.641Z,12.00
2022-10-31T16:47:54.404Z,11.90
2022-10-31T16:50:25.144Z,11.80
2022-10-31T16:53:12.506Z,11.80
2022-10-31T16:55:47.723Z,11.70
2022-10-31T16:58:20.394Z,11.70
2022-10-31T17:00:48.894Z,11.70
2022-10-31T17:03:17.238Z,11.80
2022-10-31T17:05:46.091Z,11.70
2022-10-31T17:08:14.838Z,11.80
2022-10-31T17:10:48.023Z,11.70
2022-10-31T17:13:21.021Z,11.70
2022-10-31T17:15:51.688Z,11.70
2022-10-31T17:18:24.427Z,11.70
2022-10-31T17:20:59.721Z,11.80
2022-10-31T17:23:28.810Z,11.80
2022-10-31T17:25:58.829Z,11.70
2022-10-31T17:28:27.802Z,11.70
2022-10-31T17:30:59.487Z,11.70
2022-10-31T17:33:29.287Z,11.70
2022-10-31T17:35:57.529Z,11.70
2022-10-31T17:38:26.855Z,11.60
2022-10-31T17:40:55.154Z,11.60
2022-10-31T17:43:27.285Z,11.60
2022-10-31T17:45:55.527Z,11.60
2022-10-31T17:48:23.847Z,11.60
2022-10-31T17:50:52.133Z,11.60
2022-10-31T17:53:20.409Z,11.50
2022-10-31T17:55:48.608Z,11.50
2022-10-31T17:58:16.866Z,11.40
2022-10-31T18:00:50.377Z,11.40
2022-10-31T18:03:19.573Z,11.30
2022-10-31T18:05:53.739Z,11.30
2022-10-31T18:08:25.223Z,11.30
2022-10-31T18:10:53.580Z,11.30
2022-10-31T18:13:21.734Z,11.40
2022-10-31T18:15:51.464Z,11.40
2022-10-31T18:18:19.645Z,11.40
2022-10-31T18:20:47.818Z,11.40
2022-10-31T18:23:16.033Z,11.40
2022-10-31T18:25:45.419Z,11.40
2022-10-31T18:28:13.715Z,11.40
2022-10-31T18:30:42.866Z,11.40
2022-10-31T18:33:13.015Z,11.40
2022-10-31T18:35:41.799Z,11.40
2022-10-31T18:38:10.300Z,11.30
2022-10-31T18:40:39.429Z,11.30
2022-10-31T18:43:07.785Z,11.30
2022-10-31T18:45:55.026Z,11.30
2022-10-31T18:48:28.391Z,11.30
2022-10-31T18:50:58.185Z,11.30
2022-10-31T18:53:26.775Z,11.30
2022-10-31T18:55:55.000Z,11.20
2022-10-31T18:58:23.275Z,11.20
2022-10-31T19:00:51.591Z,11.20
2022-10-31T19:03:25.688Z,11.20
2022-10-31T19:05:57.862Z,11.20
2022-10-31T19:10:54.443Z,11.30
2022-10-31T19:13:22.838Z,11.30
2022-10-31T19:15:51.066Z,11.30
2022-10-31T19:18:19.770Z,11.30
2022-10-31T19:20:47.908Z,11.20
2022-10-31T19:23:17.667Z,11.20
2022-10-31T19:25:45.966Z,11.20
2022-10-31T19:28:14.251Z,11.20
2022-10-31T19:30:42.513Z,11.20
2022-10-31T19:33:11.202Z,11.30
2022-10-31T19:35:39.500Z,11.30
2022-10-31T19:38:07.807Z,11.30
2022-10-31T19:40:37.747Z,11.30
2022-10-31T19:43:06.143Z,11.30
2022-10-31T19:45:34.454Z,11.30
2022-10-31T19:48:02.965Z,11.30
2022-10-31T19:50:31.610Z,11.30
2022-10-31T19:53:00.751Z,11.30
2022-10-31T19:55:29.099Z,11.20
2022-10-31T19:58:02.486Z,11.20
2022-10-31T20:00:31.031Z,11.20
2022-10-31T20:03:00.987Z,11.20
2022-10-31T20:05:29.507Z,11.10
2022-10-31T20:07:58.195Z,11.10
2022-10-31T20:10:26.592Z,11.20
2022-10-31T20:12:55.026Z,11.20
2022-10-31T20:15:24.700Z,11.10
2022-10-31T20:17:53.046Z,11.10
2022-10-31T20:20:21.491Z,11.10
2022-10-31T20:22:50.749Z,11.10
2022-10-31T20:25:19.372Z,11.10
2022-10-31T20:27:47.564Z,11.10
2022-10-31T20:30:16.024Z,11.10
2022-10-31T20:32:49.902Z,11.00
2022-10-31T20:35:18.593Z,11.00
2022-10-31T20:37:46.832Z,11.00
2022-10-31T20:40:15.127Z,11.00
2022-10-31T20:42:43.325Z,11.00
2022-10-31T20:45:12.247Z,11.00
2022-10-31T20:47:40.458Z,10.90
2022-10-31T20:50:10.603Z,10.90
2022-10-31T20:52:40.651Z,11.00
2022-10-31T20:55:09.762Z,10.90
2022-10-31T20:57:38.236Z,10.90
2022-10-31T21:00:08.183Z,10.90
2022-10-31T21:02:36.725Z,10.90
2022-10-31T21:05:08.449Z,10.90
2022-10-31T21:07:38.456Z,10.90
2022-10-31T21:10:15.004Z,10.90
2022-10-31T21:12:45.309Z,10.90
2022-10-31T21:15:15.122Z,10.90
2022-10-31T21:17:43.584Z,10.90
2022-10-31T21:20:12.104Z,10.90
2022-10-31T21:22:41.755Z,11.00
2022-10-31T21:25:10.184Z,10.90
2022-10-31T21:27:38.359Z,10.90
2022-10-31T21:30:07.492Z,10.90
2022-10-31T21:32:35.778Z,10.90
2022-10-31T21:35:04.007Z,10.90
2022-10-31T21:37:32.358Z,10.90
2022-10-31T21:40:02.183Z,10.90
2022-10-31T21:42:30.488Z,10.90
2022-10-31T21:44:58.783Z,10.90
2022-10-31T21:47:27.203Z,10.90
2022-10-31T21:49:55.475Z,10.90
2022-10-31T21:52:23.869Z,10.90
2022-10-31T21:54:51.035Z,10.90
2022-10-31T21:59:49.361Z,10.90
2022-10-31T22:02:17.683Z,10.90
2022-10-31T22:04:47.292Z,10.90
2022-10-31T22:07:15.490Z,10.90
2022-10-31T22:09:47.256Z,10.80
2022-10-31T22:12:15.890Z,10.80
2022-10-31T22:14:45.746Z,10.80
2022-10-31T22:17:13.925Z,10.80
2022-10-31T22:19:42.140Z,10.80
2022-10-31T22:22:12.235Z,10.80
2022-10-31T22:24:40.703Z,10.70
2022-10-31T22:27:08.953Z,10.80
2022-10-31T22:29:39.109Z,10.80
2022-10-31T22:32:09.118Z,10.80
2022-10-31T22:34:37.567Z,10.80
2022-10-31T22:37:05.842Z,10.80
2022-10-31T22:39:34.165Z,10.80
2022-10-31T22:42:02.443Z,10.80
2022-10-31T22:44:30.627Z,10.80
2022-10-31T22:46:58.951Z,10.80
2022-10-31T22:49:29.977Z,10.80
2022-10-31T22:51:59.896Z,10.80
2022-10-31T22:54:28.295Z,10.80
2022-10-31T22:56:56.550Z,10.80
2022-10-31T22:59:24.694Z,10.80
2022-10-31T23:01:55.414Z,10.80
2022-10-31T23:04:23.984Z,10.80
2022-10-31T23:06:53.651Z,10.80
2022-10-31T23:09:21.909Z,10.80
2022-10-31T23:11:50.130Z,10.80
2022-10-31T23:14:21.063Z,10.80
2022-10-31T23:16:52.856Z,10.80
2022-10-31T23:19:23.349Z,10.80
2022-10-31T23:21:59.915Z,10.80
2022-10-31T23:24:33.132Z,10.80
2022-10-31T23:27:11.280Z,10.80
2022-10-31T23:29:43.400Z,10.80
2022-10-31T23:32:14.368Z,10.80
2022-10-31T23:34:42.603Z,10.80
2022-10-31T23:37:12.867Z,10.80
2022-10-31T23:39:41.283Z,10.80
2022-10-31T23:42:10.084Z,10.80
2022-10-31T23:44:38.319Z,10.80
2022-10-31T23:47:07.687Z,10.80
2022-10-31T23:49:36.055Z,10.80
2022-10-31T23:52:05.263Z,10.80
2022-10-31T23:54:36.011Z,10.80
2022-10-31T23:57:05.163Z,10.80
2022-10-31T23:59:33.696Z,10.80
